Time;durP1;ratioP1;P1;durP2;ratioP2;P2;SDS_P1;SDS_P2;PMS_P1;PMS_P2;Temp;Humidity;BMP_temperature;BMP_pressure;BME280_temperature;BME280_humidity;BME280_pressure;Samples;Min_cycle;Max_cycle;Signal;HPM_P1;HPM_P2
2023/08/24 00:00:54;;;;;;;8.50;4.13;;;;;;;;;;5033991;28;20053;-79
2023/08/24 00:03:23;;;;;;;8.55;4.18;;;;;;;;;;5015246;28;20084;-79
2023/08/24 00:05:49;;;;;;;10.68;4.20;;;;;;;;;;5034922;28;20421;-80
2023/08/24 00:08:16;;;;;;;10.45;4.20;;;;;;;;;;5035072;28;20057;-78
2023/08/24 00:10:46;;;;;;;10.02;4.40;;;;;;;;;;5001578;28;20060;-78
2023/08/24 00:13:12;;;;;;;9.70;4.40;;;;;;;;;;5017412;28;20045;-78
2023/08/24 00:15:39;;;;;;;8.20;4.00;;;;;;;;;;5017906;28;20045;-77
2023/08/24 00:18:05;;;;;;;10.68;4.50;;;;;;;;;;5017629;28;20372;-77
2023/08/24 00:20:32;;;;;;;8.32;4.28;;;;;;;;;;5035610;28;20049;-77
2023/08/24 00:22:58;;;;;;;9.82;4.20;;;;;;;;;;5017199;28;20060;-79
2023/08/24 00:25:25;;;;;;;10.50;4.70;;;;;;;;;;5035362;28;20076;-79
2023/08/24 00:27:52;;;;;;;8.93;4.20;;;;;;;;;;5001772;28;20089;-79
2023/08/24 00:30:18;;;;;;;8.07;4.07;;;;;;;;;;4998200;28;20050;-79
2023/08/24 00:32:44;;;;;;;11.30;4.78;;;;;;;;;;4997056;28;20132;-79
2023/08/24 00:35:10;;;;;;;7.40;4.20;;;;;;;;;;5014125;28;20044;-79
2023/08/24 00:37:37;;;;;;;8.85;4.50;;;;;;;;;;5014985;28;20042;-78
2023/08/24 00:40:07;;;;;;;11.73;4.63;;;;;;;;;;5015339;28;20455;-79
2023/08/24 00:42:33;;;;;;;8.18;4.00;;;;;;;;;;5012625;28;20518;-78
2023/08/24 00:44:59;;;;;;;9.93;4.28;;;;;;;;;;5014797;28;20481;-78
2023/08/24 00:47:25;;;;;;;9.13;4.43;;;;;;;;;;4996978;28;20049;-78
2023/08/24 00:49:51;;;;;;;8.45;3.92;;;;;;;;;;4997421;28;20049;-79
2023/08/24 00:52:20;;;;;;;8.48;3.70;;;;;;;;;;5014528;28;20104;-78
2023/08/24 00:54:47;;;;;;;8.40;4.20;;;;;;;;;;5014747;28;20053;-78
2023/08/24 00:57:13;;;;;;;9.23;4.03;;;;;;;;;;5014245;28;20151;-77
2023/08/24 00:59:40;;;;;;;8.80;4.50;;;;;;;;;;5014677;28;20399;-78
2023/08/24 01:02:06;;;;;;;7.15;4.28;;;;;;;;;;4996398;28;20488;-78
2023/08/24 01:04:32;;;;;;;8.55;4.20;;;;;;;;;;5011500;28;20053;-78
2023/08/24 01:06:58;;;;;;;8.55;4.30;;;;;;;;;;4996475;28;20141;-78
2023/08/24 01:09:24;;;;;;;9.30;3.70;;;;;;;;;;5012135;28;20058;-77
2023/08/24 01:11:56;;;;;;;8.38;4.45;;;;;;;;;;5012468;28;20549;-78
2023/08/24 01:14:49;;;;;;;8.43;4.05;;;;;;;;;;5014171;28;20045;-78
2023/08/24 01:17:16;;;;;;;8.27;3.97;;;;;;;;;;4967246;28;20494;-78
2023/08/24 01:19:43;;;;;;;11.55;4.90;;;;;;;;;;4980638;28;20383;-78
2023/08/24 01:22:29;;;;;;;12.35;5.18;;;;;;;;;;5014087;28;20034;-78
2023/08/24 01:25:08;;;;;;;11.85;5.70;;;;;;;;;;5013727;28;20041;-78
2023/08/24 01:27:34;;;;;;;12.10;5.10;;;;;;;;;;5013683;28;20046;-78
2023/08/24 01:30:02;;;;;;;11.65;5.30;;;;;;;;;;5013984;28;20041;-78
2023/08/24 01:32:30;;;;;;;7.82;5.28;;;;;;;;;;5013617;28;20517;-78
2023/08/24 01:34:56;;;;;;;9.95;5.35;;;;;;;;;;5013666;28;20052;-78
2023/08/24 01:37:22;;;;;;;9.18;4.97;;;;;;;;;;5031826;28;20120;-78
2023/08/24 01:39:58;;;;;;;11.10;5.88;;;;;;;;;;4999383;28;20056;-78
2023/08/24 01:42:27;;;;;;;11.27;5.63;;;;;;;;;;5033299;28;20041;-78
2023/08/24 01:44:58;;;;;;;11.55;5.65;;;;;;;;;;5015231;28;20169;-77
2023/08/24 01:47:24;;;;;;;12.15;5.20;;;;;;;;;;5015461;28;20231;-78
2023/08/24 01:49:50;;;;;;;10.70;5.47;;;;;;;;;;5015982;28;20045;-78
2023/08/24 01:52:17;;;;;;;12.00;5.68;;;;;;;;;;5015637;28;20150;-77
2023/08/24 01:54:44;;;;;;;12.23;6.03;;;;;;;;;;5033209;28;20041;-78
2023/08/24 01:57:11;;;;;;;11.38;5.03;;;;;;;;;;5032420;28;20045;-78
2023/08/24 01:59:37;;;;;;;9.05;5.00;;;;;;;;;;5032416;28;20128;-77
2023/08/24 02:02:03;;;;;;;10.77;5.15;;;;;;;;;;5032786;28;20045;-78
2023/08/24 02:04:29;;;;;;;9.27;5.22;;;;;;;;;;5015109;28;20080;-78
2023/08/24 02:06:55;;;;;;;11.38;4.80;;;;;;;;;;5015127;28;20403;-78
2023/08/24 02:09:21;;;;;;;11.13;4.93;;;;;;;;;;5015248;28;20061;-78
2023/08/24 02:11:47;;;;;;;9.07;4.80;;;;;;;;;;5033076;28;20123;-78
2023/08/24 02:14:13;;;;;;;7.78;4.60;;;;;;;;;;5014782;28;20547;-78
2023/08/24 02:16:39;;;;;;;13.48;4.55;;;;;;;;;;5032007;28;20120;-77
2023/08/24 02:19:05;;;;;;;10.95;5.20;;;;;;;;;;5032594;28;20076;-78
2023/08/24 02:21:31;;;;;;;12.52;5.03;;;;;;;;;;5032886;28;20060;-78
2023/08/24 02:23:57;;;;;;;11.00;5.95;;;;;;;;;;5032492;28;20393;-78
2023/08/24 02:26:23;;;;;;;10.43;6.00;;;;;;;;;;5032674;28;20347;-77
2023/08/24 02:28:49;;;;;;;15.13;6.30;;;;;;;;;;5032345;28;20056;-77
2023/08/24 02:31:18;;;;;;;13.30;6.88;;;;;;;;;;5014734;28;20049;-79
2023/08/24 02:33:44;;;;;;;11.65;6.82;;;;;;;;;;5009658;28;20053;-79
2023/08/24 02:36:11;;;;;;;13.35;6.15;;;;;;;;;;4996853;28;20155;-79
2023/08/24 02:38:37;;;;;;;13.30;5.72;;;;;;;;;;5032410;28;20150;-79
2023/08/24 02:41:04;;;;;;;11.38;6.18;;;;;;;;;;5032964;28;20069;-79
2023/08/24 02:43:30;;;;;;;13.23;5.80;;;;;;;;;;5032239;28;20064;-78
2023/08/24 02:46:00;;;;;;;12.73;6.38;;;;;;;;;;5032924;28;20044;-79
2023/08/24 02:48:26;;;;;;;12.15;5.50;;;;;;;;;;5014405;28;20053;-78
2023/08/24 02:50:52;;;;;;;10.90;5.25;;;;;;;;;;5032348;28;20048;-78
2023/08/24 02:53:18;;;;;;;11.82;5.78;;;;;;;;;;5031869;28;20084;-78
2023/08/24 02:55:44;;;;;;;10.15;5.50;;;;;;;;;;5014448;28;20045;-78
2023/08/24 02:58:10;;;;;;;12.10;5.55;;;;;;;;;;5031918;28;20041;-79
2023/08/24 03:00:38;;;;;;;12.57;5.60;;;;;;;;;;5032541;28;20144;-78
2023/08/24 03:03:07;;;;;;;12.25;5.55;;;;;;;;;;5030648;28;20103;-78
2023/08/24 03:05:33;;;;;;;9.30;5.25;;;;;;;;;;5014485;28;20098;-78
2023/08/24 03:08:00;;;;;;;8.73;5.22;;;;;;;;;;5032142;28;20076;-79
2023/08/24 03:10:26;;;;;;;8.73;5.40;;;;;;;;;;5032219;28;20497;-79
2023/08/24 03:12:52;;;;;;;13.30;5.80;;;;;;;;;;5014251;28;20041;-78
2023/08/24 03:15:18;;;;;;;12.02;5.93;;;;;;;;;;5032318;28;20048;-78
2023/08/24 03:17:44;;;;;;;9.38;5.70;;;;;;;;;;5014408;28;20441;-79
2023/08/24 03:20:10;;;;;;;9.52;6.00;;;;;;;;;;5013281;28;20390;-79
2023/08/24 03:22:36;;;;;;;12.50;5.45;;;;;;;;;;5031619;28;20046;-78
2023/08/24 03:25:03;;;;;;;10.00;5.72;;;;;;;;;;5032239;28;20041;-79
2023/08/24 03:27:29;;;;;;;12.25;5.78;;;;;;;;;;5032725;28;20393;-79
2023/08/24 03:29:55;;;;;;;9.00;5.10;;;;;;;;;;5036079;28;20056;-79
2023/08/24 03:32:21;;;;;;;13.63;6.53;;;;;;;;;;5035920;28;20147;-78
2023/08/24 03:34:47;;;;;;;11.93;6.22;;;;;;;;;;5038022;28;20079;-76
2023/08/24 03:37:13;;;;;;;12.35;6.55;;;;;;;;;;5028565;28;20049;-76
2023/08/24 03:39:39;;;;;;;15.70;6.60;;;;;;;;;;5028958;28;20453;-77
2023/08/24 03:42:06;;;;;;;12.20;6.35;;;;;;;;;;5035921;28;20383;-79
2023/08/24 03:44:32;;;;;;;10.88;6.28;;;;;;;;;;5036743;28;20041;-79
2023/08/24 03:46:58;;;;;;;12.48;6.85;;;;;;;;;;5017291;28;20057;-78
2023/08/24 03:49:26;;;;;;;12.43;7.80;;;;;;;;;;5015176;28;20119;-79
2023/08/24 03:51:52;;;;;;;12.30;6.80;;;;;;;;;;5035946;28;20057;-77
2023/08/24 03:54:18;;;;;;;14.07;7.70;;;;;;;;;;5001673;28;20057;-78
2023/08/24 03:56:47;;;;;;;13.05;7.45;;;;;;;;;;5036277;28;20041;-79
2023/08/24 03:59:13;;;;;;;14.15;7.80;;;;;;;;;;5018246;28;20065;-79
2023/08/24 04:01:39;;;;;;;13.32;7.95;;;;;;;;;;5016992;28;20103;-79
2023/08/24 04:04:05;;;;;;;9.98;6.97;;;;;;;;;;5015052;28;20096;-78
2023/08/24 04:06:31;;;;;;;12.18;7.85;;;;;;;;;;5035909;28;20045;-79
2023/08/24 04:08:57;;;;;;;12.57;7.90;;;;;;;;;;5035676;28;20425;-79
2023/08/24 04:11:23;;;;;;;14.07;8.50;;;;;;;;;;5017767;28;20049;-78
2023/08/24 04:13:49;;;;;;;11.85;7.40;;;;;;;;;;5035161;28;20045;-79
2023/08/24 04:16:17;;;;;;;15.15;8.13;;;;;;;;;;5035626;28;20037;-79
2023/08/24 04:18:42;;;;;;;10.93;6.63;;;;;;;;;;5035229;28;20398;-79
2023/08/24 04:21:09;;;;;;;15.45;7.00;;;;;;;;;;5035505;28;20069;-78
2023/08/24 04:23:35;;;;;;;11.77;6.70;;;;;;;;;;5035115;28;20077;-79
2023/08/24 04:26:01;;;;;;;12.55;6.18;;;;;;;;;;5035632;28;20057;-79
2023/08/24 04:28:27;;;;;;;12.40;5.88;;;;;;;;;;5013832;28;20434;-79
2023/08/24 04:30:54;;;;;;;10.77;5.60;;;;;;;;;;5015554;28;20434;-78
2023/08/24 04:33:20;;;;;;;12.35;5.68;;;;;;;;;;4997406;28;20081;-78
2023/08/24 04:35:50;;;;;;;11.20;5.53;;;;;;;;;;4997568;28;20045;-78
2023/08/24 04:38:16;;;;;;;9.32;5.15;;;;;;;;;;4977722;28;20105;-78
2023/08/24 04:40:52;;;;;;;9.95;5.20;;;;;;;;;;4996932;28;20089;-78
2023/08/24 04:43:20;;;;;;;9.98;5.07;;;;;;;;;;4997118;28;20045;-78
2023/08/24 04:45:48;;;;;;;12.10;4.88;;;;;;;;;;5015210;28;20042;-78
2023/08/24 04:48:14;;;;;;;10.40;5.03;;;;;;;;;;5014192;28;20054;-78
2023/08/24 04:50:42;;;;;;;13.02;6.05;;;;;;;;;;5014664;28;20100;-79
2023/08/24 04:53:08;;;;;;;10.63;5.55;;;;;;;;;;5014491;28;20053;-78
2023/08/24 04:55:34;;;;;;;12.35;5.82;;;;;;;;;;5014905;28;20099;-78
2023/08/24 04:58:00;;;;;;;14.27;6.38;;;;;;;;;;5014400;28;20092;-79
2023/08/24 05:00:26;;;;;;;16.10;6.30;;;;;;;;;;5014567;28;20068;-78
2023/08/24 05:02:52;;;;;;;14.98;6.53;;;;;;;;;;4993883;28;20379;-79
2023/08/24 05:05:19;;;;;;;12.15;6.07;;;;;;;;;;5014786;28;20448;-79
2023/08/24 05:07:45;;;;;;;11.30;5.70;;;;;;;;;;5014474;28;20148;-79
2023/08/24 05:10:11;;;;;;;13.55;5.45;;;;;;;;;;5014541;28;20056;-79
2023/08/24 05:12:37;;;;;;;13.65;5.75;;;;;;;;;;5013828;28;20046;-79
2023/08/24 05:15:04;;;;;;;12.30;5.47;;;;;;;;;;5014409;28;20038;-78
2023/08/24 05:17:31;;;;;;;12.30;5.68;;;;;;;;;;5013940;28;20410;-78
2023/08/24 05:19:57;;;;;;;11.45;5.60;;;;;;;;;;5014158;28;20414;-79
2023/08/24 05:22:23;;;;;;;14.80;5.50;;;;;;;;;;5013884;28;20120;-79
2023/08/24 05:24:49;;;;;;;11.93;5.32;;;;;;;;;;5014059;28;20074;-79
2023/08/24 05:27:16;;;;;;;14.52;5.60;;;;;;;;;;4995755;28;20069;-79
2023/08/24 05:29:42;;;;;;;11.30;5.40;;;;;;;;;;4996502;28;20555;-79
2023/08/24 05:32:08;;;;;;;10.07;5.75;;;;;;;;;;5011707;28;20125;-79
2023/08/24 05:34:34;;;;;;;11.38;5.85;;;;;;;;;;5011338;28;20046;-79
2023/08/24 05:37:00;;;;;;;11.02;5.60;;;;;;;;;;5014343;28;20507;-79
2023/08/24 05:39:26;;;;;;;11.65;5.47;;;;;;;;;;5030698;28;20128;-77
2023/08/24 05:41:53;;;;;;;14.85;6.20;;;;;;;;;;5033321;28;20486;-78
2023/08/24 05:44:22;;;;;;;11.48;5.75;;;;;;;;;;4997369;28;20045;-79
2023/08/24 05:46:49;;;;;;;12.18;6.13;;;;;;;;;;5032903;28;20131;-78
2023/08/24 05:49:15;;;;;;;16.02;7.22;;;;;;;;;;5032900;28;20089;-79
2023/08/24 05:51:43;;;;;;;15.93;7.57;;;;;;;;;;5033582;28;20038;-79
2023/08/24 05:54:09;;;;;;;14.95;8.02;;;;;;;;;;5033132;28;20390;-79
2023/08/24 05:56:35;;;;;;;17.27;8.70;;;;;;;;;;5015211;28;20389;-80
2023/08/24 05:59:01;;;;;;;21.45;10.32;;;;;;;;;;5014247;28;20049;-79
2023/08/24 06:01:27;;;;;;;20.27;10.30;;;;;;;;;;5015530;28;20045;-79
2023/08/24 06:03:54;;;;;;;18.25;9.98;;;;;;;;;;5032468;28;20057;-79
2023/08/24 06:06:20;;;;;;;15.98;8.55;;;;;;;;;;4998900;28;20057;-79
2023/08/24 06:08:46;;;;;;;15.38;8.13;;;;;;;;;;5032727;28;20041;-79
2023/08/24 06:11:12;;;;;;;14.52;7.47;;;;;;;;;;5033829;28;20128;-79
2023/08/24 06:13:38;;;;;;;13.77;7.22;;;;;;;;;;5032784;28;20053;-78
2023/08/24 06:16:04;;;;;;;14.57;7.65;;;;;;;;;;5033018;28;20151;-79
2023/08/24 06:18:30;;;;;;;16.50;7.65;;;;;;;;;;5015029;28;20445;-78
2023/08/24 06:20:56;;;;;;;11.27;7.57;;;;;;;;;;5015369;28;20073;-78
2023/08/24 06:23:23;;;;;;;12.50;7.45;;;;;;;;;;5014326;28;20486;-78
2023/08/24 06:25:49;;;;;;;14.07;7.47;;;;;;;;;;5015051;28;20060;-78
2023/08/24 06:28:15;;;;;;;13.27;6.97;;;;;;;;;;5031937;28;20045;-77
2023/08/24 06:30:42;;;;;;;14.63;7.03;;;;;;;;;;5032834;28;20103;-79
2023/08/24 06:33:10;;;;;;;14.85;6.35;;;;;;;;;;5032210;28;20053;-78
2023/08/24 06:35:36;;;;;;;13.85;6.70;;;;;;;;;;5032573;28;20387;-79
2023/08/24 06:38:03;;;;;;;14.93;6.97;;;;;;;;;;5032336;28;20103;-79
2023/08/24 06:40:30;;;;;;;14.60;7.32;;;;;;;;;;5014875;28;20038;-79
2023/08/24 06:42:57;;;;;;;12.88;6.68;;;;;;;;;;5032325;28;20045;-79
2023/08/24 06:45:23;;;;;;;12.45;6.40;;;;;;;;;;5033422;28;20041;-78
2023/08/24 06:47:49;;;;;;;14.25;6.80;;;;;;;;;;5014961;28;20048;-78
2023/08/24 06:50:15;;;;;;;12.48;7.30;;;;;;;;;;5030496;28;20129;-80
2023/08/24 06:52:42;;;;;;;12.93;6.55;;;;;;;;;;5012019;28;20053;-78
2023/08/24 06:55:11;;;;;;;9.68;6.15;;;;;;;;;;5030486;28;20080;-78
2023/08/24 06:57:38;;;;;;;13.88;6.43;;;;;;;;;;5032105;28;20064;-78
2023/08/24 07:00:12;;;;;;;10.15;5.47;;;;;;;;;;5032355;28;20445;-79
2023/08/24 07:02:39;;;;;;;11.30;5.05;;;;;;;;;;5017330;28;20052;-78
2023/08/24 07:05:05;;;;;;;12.82;5.70;;;;;;;;;;5036480;28;20527;-78
2023/08/24 07:07:31;;;;;;;11.02;5.68;;;;;;;;;;5018196;28;20084;-78
2023/08/24 07:09:57;;;;;;;11.48;4.90;;;;;;;;;;5036307;28;20053;-78
2023/08/24 07:12:23;;;;;;;9.75;5.07;;;;;;;;;;5036040;28;20049;-78
2023/08/24 07:14:51;;;;;;;9.23;5.20;;;;;;;;;;5036322;28;20485;-79
2023/08/24 07:17:18;;;;;;;14.85;5.85;;;;;;;;;;5035771;28;20120;-79
2023/08/24 07:19:44;;;;;;;11.90;6.15;;;;;;;;;;5018609;28;20486;-78
2023/08/24 07:22:11;;;;;;;13.10;6.15;;;;;;;;;;5035864;28;20049;-77
2023/08/24 07:24:37;;;;;;;11.90;6.70;;;;;;;;;;5018400;28;20037;-79
2023/08/24 07:27:03;;;;;;;9.90;6.32;;;;;;;;;;5009771;28;20042;-77
2023/08/24 07:29:29;;;;;;;12.13;6.18;;;;;;;;;;4997368;28;20050;-78
2023/08/24 07:31:55;;;;;;;18.20;6.82;;;;;;;;;;5021122;28;20469;-75
2023/08/24 07:34:22;;;;;;;11.20;5.93;;;;;;;;;;5007341;28;20057;-75
2023/08/24 07:36:49;;;;;;;11.60;6.03;;;;;;;;;;5041698;28;20044;-76
2023/08/24 07:39:17;;;;;;;8.10;5.55;;;;;;;;;;5018313;28;20101;-78
2023/08/24 07:41:43;;;;;;;11.90;5.22;;;;;;;;;;5035916;28;20045;-78
2023/08/24 07:44:09;;;;;;;9.52;4.78;;;;;;;;;;5035263;28;20128;-78
2023/08/24 07:46:35;;;;;;;9.43;5.13;;;;;;;;;;5017944;28;20048;-79
2023/08/24 07:49:01;;;;;;;10.60;5.60;;;;;;;;;;5017569;28;20057;-77
2023/08/24 07:51:28;;;;;;;9.30;5.05;;;;;;;;;;5018125;28;20172;-79
2023/08/24 07:53:54;;;;;;;13.68;6.28;;;;;;;;;;5034040;28;20167;-78
2023/08/24 07:56:23;;;;;;;14.73;7.15;;;;;;;;;;5001842;28;20045;-78
2023/08/24 07:58:49;;;;;;;11.48;6.97;;;;;;;;;;5035648;28;20050;-78
2023/08/24 08:01:15;;;;;;;13.82;6.88;;;;;;;;;;5035697;28;20041;-78
2023/08/24 08:03:41;;;;;;;11.40;7.03;;;;;;;;;;5034465;28;20049;-78
2023/08/24 08:06:07;;;;;;;13.20;7.47;;;;;;;;;;5017696;28;20067;-78
2023/08/24 08:08:33;;;;;;;12.63;7.30;;;;;;;;;;5035114;28;20057;-79
2023/08/24 08:11:00;;;;;;;9.57;6.63;;;;;;;;;;5035284;28;20111;-78
2023/08/24 08:13:27;;;;;;;11.32;6.15;;;;;;;;;;5034721;28;20049;-79
2023/08/24 08:15:53;;;;;;;9.32;6.00;;;;;;;;;;5017838;28;20065;-78
2023/08/24 08:18:19;;;;;;;11.13;6.40;;;;;;;;;;5016751;28;20061;-78
2023/08/24 08:20:46;;;;;;;9.80;6.55;;;;;;;;;;5036032;28;20041;-78
2023/08/24 08:23:12;;;;;;;12.07;6.88;;;;;;;;;;5035288;28;20049;-78
2023/08/24 08:25:42;;;;;;;10.38;5.95;;;;;;;;;;5033587;28;20108;-79
2023/08/24 08:28:11;;;;;;;12.77;5.90;;;;;;;;;;5017117;28;20461;-79
2023/08/24 08:30:37;;;;;;;11.27;6.00;;;;;;;;;;4997606;28;20042;-78
2023/08/24 08:33:03;;;;;;;12.05;6.30;;;;;;;;;;5014456;28;20052;-79
2023/08/24 08:35:29;;;;;;;11.90;5.88;;;;;;;;;;4997621;28;20041;-79
2023/08/24 08:37:56;;;;;;;11.65;5.80;;;;;;;;;;5015122;28;20057;-80
2023/08/24 08:40:24;;;;;;;11.13;5.45;;;;;;;;;;4997434;28;20045;-79
2023/08/24 08:42:50;;;;;;;10.40;5.45;;;;;;;;;;4996955;28;20053;-79
2023/08/24 08:45:19;;;;;;;9.93;4.95;;;;;;;;;;5013677;28;20046;-79
2023/08/24 08:47:45;;;;;;;9.73;5.25;;;;;;;;;;5011744;28;20092;-79
2023/08/24 08:50:12;;;;;;;8.52;4.75;;;;;;;;;;5014676;28;20050;-80
2023/08/24 08:52:38;;;;;;;12.68;4.25;;;;;;;;;;4996656;28;20129;-79
2023/08/24 08:55:06;;;;;;;9.38;4.65;;;;;;;;;;5013424;28;20089;-78
2023/08/24 08:57:33;;;;;;;9.40;4.40;;;;;;;;;;5014010;28;20046;-78
2023/08/24 09:00:01;;;;;;;8.70;4.60;;;;;;;;;;5014495;28;20096;-78
2023/08/24 09:02:29;;;;;;;9.95;4.60;;;;;;;;;;5014084;28;20041;-78
2023/08/24 09:04:55;;;;;;;9.75;3.85;;;;;;;;;;5013074;28;20111;-79
2023/08/24 09:07:21;;;;;;;10.10;4.78;;;;;;;;;;4996359;28;20057;-79
2023/08/24 09:09:47;;;;;;;11.77;4.40;;;;;;;;;;5014788;28;20046;-79
2023/08/24 09:12:14;;;;;;;8.55;4.45;;;;;;;;;;5014114;28;20042;-79
2023/08/24 09:14:41;;;;;;;10.13;4.93;;;;;;;;;;5014239;28;20133;-79
2023/08/24 09:17:07;;;;;;;10.90;5.18;;;;;;;;;;5013665;28;20038;-79
2023/08/24 09:19:38;;;;;;;9.70;5.10;;;;;;;;;;5014048;28;20406;-79
2023/08/24 09:22:04;;;;;;;12.00;4.70;;;;;;;;;;5012658;28;20049;-79
2023/08/24 09:24:31;;;;;;;9.57;4.55;;;;;;;;;;4995147;28;20054;-79
2023/08/24 09:26:58;;;;;;;13.27;4.40;;;;;;;;;;5013692;28;20435;-79
2023/08/24 09:29:24;;;;;;;9.50;4.30;;;;;;;;;;5013570;28;20045;-80
2023/08/24 09:31:53;;;;;;;11.43;5.47;;;;;;;;;;5013708;28;20041;-78
2023/08/24 09:34:26;;;;;;;8.93;4.70;;;;;;;;;;5013165;28;20510;-79
2023/08/24 09:36:52;;;;;;;11.52;5.57;;;;;;;;;;4996180;28;20049;-79
2023/08/24 09:39:19;;;;;;;8.30;4.55;;;;;;;;;;4996193;28;20506;-79
2023/08/24 09:41:47;;;;;;;8.68;4.63;;;;;;;;;;4996108;28;20049;-78
2023/08/24 09:44:14;;;;;;;10.70;5.40;;;;;;;;;;5013313;28;20548;-78
2023/08/24 09:46:40;;;;;;;9.10;5.53;;;;;;;;;;5013618;28;20450;-79
2023/08/24 09:49:07;;;;;;;10.10;5.70;;;;;;;;;;4995581;28;20552;-79
2023/08/24 09:51:37;;;;;;;13.05;5.57;;;;;;;;;;4996023;28;20046;-78
2023/08/24 09:54:08;;;;;;;11.25;5.35;;;;;;;;;;5013137;28;20038;-78
2023/08/24 09:56:36;;;;;;;10.10;5.35;;;;;;;;;;4996031;28;20082;-79
2023/08/24 09:59:06;;;;;;;8.15;4.82;;;;;;;;;;5013215;28;20551;-80
2023/08/24 10:01:32;;;;;;;8.73;5.82;;;;;;;;;;5013082;28;20064;-79
2023/08/24 10:03:59;;;;;;;13.23;5.50;;;;;;;;;;5012895;28;20057;-79
2023/08/24 10:06:29;;;;;;;9.38;5.30;;;;;;;;;;5013397;28;20117;-78
2023/08/24 10:08:58;;;;;;;10.43;5.00;;;;;;;;;;4978891;28;20049;-78
2023/08/24 10:11:26;;;;;;;13.30;6.03;;;;;;;;;;4995447;28;20042;-78
2023/08/24 10:14:17;;;;;;;13.00;5.97;;;;;;;;;;4996285;28;20041;-78
2023/08/24 10:16:46;;;;;;;11.20;5.57;;;;;;;;;;4996533;28;20379;-78
2023/08/24 10:19:13;;;;;;;13.57;6.22;;;;;;;;;;5012913;28;20483;-78
2023/08/24 10:21:40;;;;;;;11.73;5.40;;;;;;;;;;4995684;28;20049;-79
2023/08/24 10:24:09;;;;;;;14.43;6.10;;;;;;;;;;5012500;28;20038;-79
2023/08/24 10:26:36;;;;;;;9.50;5.68;;;;;;;;;;5017447;28;20563;-79
2023/08/24 10:29:03;;;;;;;10.30;6.38;;;;;;;;;;5032608;28;20072;-79
2023/08/24 10:31:30;;;;;;;12.40;6.50;;;;;;;;;;4996583;28;20046;-80
2023/08/24 10:33:57;;;;;;;13.48;6.07;;;;;;;;;;5014640;28;20049;-77
2023/08/24 10:36:23;;;;;;;12.20;6.00;;;;;;;;;;5032638;28;20037;-79
2023/08/24 10:38:49;;;;;;;13.60;6.82;;;;;;;;;;5014495;28;20049;-80
2023/08/24 10:41:19;;;;;;;11.13;6.10;;;;;;;;;;5015333;28;20057;-79
2023/08/24 10:43:51;;;;;;;10.85;6.22;;;;;;;;;;5030870;28;20048;-79
2023/08/24 10:46:17;;;;;;;12.82;6.88;;;;;;;;;;5032511;28;20513;-79
2023/08/24 10:48:44;;;;;;;10.60;6.70;;;;;;;;;;5014064;28;20055;-80
2023/08/24 10:51:16;;;;;;;9.02;6.80;;;;;;;;;;5031796;28;20386;-79
2023/08/24 10:53:44;;;;;;;13.00;6.40;;;;;;;;;;5014672;28;20049;-80
2023/08/24 10:56:11;;;;;;;12.30;6.80;;;;;;;;;;5032551;28;20140;-77
2023/08/24 10:58:37;;;;;;;10.32;7.18;;;;;;;;;;5014479;28;20433;-79
2023/08/24 11:01:04;;;;;;;10.77;7.22;;;;;;;;;;5014663;28;20048;-79
2023/08/24 11:03:36;;;;;;;11.30;7.43;;;;;;;;;;4997795;28;20160;-79
2023/08/24 11:06:18;;;;;;;12.30;7.45;;;;;;;;;;5032534;28;20049;-79
2023/08/24 11:08:50;;;;;;;13.15;7.35;;;;;;;;;;5014110;28;20505;-78
2023/08/24 11:11:24;;;;;;;15.07;7.20;;;;;;;;;;5033215;28;20088;-78
2023/08/24 11:14:09;;;;;;;13.75;7.47;;;;;;;;;;5032482;28;20397;-79
2023/08/24 11:16:43;;;;;;;10.25;7.50;;;;;;;;;;5014611;28;20085;-79
2023/08/24 11:19:09;;;;;;;11.88;7.05;;;;;;;;;;5032287;28;20061;-79
2023/08/24 11:21:35;;;;;;;10.35;7.03;;;;;;;;;;5032709;28;20048;-79
2023/08/24 11:24:02;;;;;;;12.75;7.25;;;;;;;;;;5034362;28;20055;-75
2023/08/24 11:26:30;;;;;;;13.60;7.40;;;;;;;;;;5039600;28;20042;-76
2023/08/24 11:28:57;;;;;;;12.73;7.22;;;;;;;;;;5038424;28;20179;-78
2023/08/24 11:31:24;;;;;;;11.88;7.05;;;;;;;;;;5014911;28;20053;-79
2023/08/24 11:33:57;;;;;;;11.63;7.68;;;;;;;;;;5014331;28;20128;-78
2023/08/24 11:36:23;;;;;;;14.30;7.70;;;;;;;;;;5014519;28;20042;-79
2023/08/24 11:38:50;;;;;;;12.55;8.18;;;;;;;;;;5013830;28;20061;-79
2023/08/24 11:41:21;;;;;;;11.10;6.90;;;;;;;;;;5014039;28;20045;-79
2023/08/24 11:43:48;;;;;;;12.20;7.57;;;;;;;;;;5014318;28;20127;-79
2023/08/24 11:46:16;;;;;;;13.20;7.55;;;;;;;;;;5032257;28;20054;-79
2023/08/24 11:48:42;;;;;;;14.05;7.15;;;;;;;;;;5016367;28;20053;-80
2023/08/24 11:51:10;;;;;;;13.60;7.35;;;;;;;;;;5018107;28;20095;-80
2023/08/24 11:53:40;;;;;;;10.93;7.45;;;;;;;;;;5035013;28;20351;-79
2023/08/24 11:56:08;;;;;;;14.98;7.32;;;;;;;;;;5034977;28;20041;-79
2023/08/24 11:58:34;;;;;;;13.60;7.38;;;;;;;;;;5017032;28;20045;-79
2023/08/24 12:01:00;;;;;;;11.77;7.47;;;;;;;;;;5035554;28;20052;-79
2023/08/24 12:03:28;;;;;;;13.45;7.10;;;;;;;;;;5035120;28;20046;-78
2023/08/24 12:05:56;;;;;;;10.27;6.88;;;;;;;;;;5035444;28;20049;-79
2023/08/24 12:08:23;;;;;;;12.75;6.90;;;;;;;;;;5034858;28;20080;-78
2023/08/24 12:10:49;;;;;;;11.52;7.57;;;;;;;;;;5016955;28;20132;-79
2023/08/24 12:13:17;;;;;;;15.38;7.43;;;;;;;;;;5017021;28;20087;-79
2023/08/24 12:15:44;;;;;;;24.17;9.48;;;;;;;;;;5033255;28;20132;-79
2023/08/24 12:18:13;;;;;;;20.08;8.82;;;;;;;;;;4998299;28;20183;-79
2023/08/24 12:20:42;;;;;;;17.02;8.07;;;;;;;;;;5035185;28;20045;-79
2023/08/24 12:23:10;;;;;;;15.68;8.50;;;;;;;;;;5034794;28;20045;-79
2023/08/24 12:25:42;;;;;;;15.52;7.93;;;;;;;;;;5035025;28;20391;-78
2023/08/24 12:28:17;;;;;;;11.02;7.25;;;;;;;;;;5010061;28;20176;-78
2023/08/24 12:30:43;;;;;;;;;;;;;;;;;;5015854;28;20042;-79
2023/08/24 12:33:09;;;;;;;15.63;8.85;;;;;;;;;;4997596;28;20243;-78
2023/08/24 12:35:35;;;;;;;23.52;7.90;;;;;;;;;;5015360;28;20052;-78
2023/08/24 12:38:02;;;;;;;21.45;8.75;;;;;;;;;;5014897;28;20487;-79
2023/08/24 12:40:28;;;;;;;16.45;7.53;;;;;;;;;;5014995;28;20426;-79
2023/08/24 12:42:54;;;;;;;19.02;8.10;;;;;;;;;;4981030;28;20418;-79
2023/08/24 12:45:20;;;;;;;16.38;7.43;;;;;;;;;;4997749;28;20064;-78
2023/08/24 12:47:46;;;;;;;11.25;7.05;;;;;;;;;;5014579;28;20049;-78
2023/08/24 12:50:12;;;;;;;12.15;7.95;;;;;;;;;;5014950;28;20464;-78
2023/08/24 12:52:38;;;;;;;13.45;7.90;;;;;;;;;;4996684;28;20471;-79
2023/08/24 12:55:05;;;;;;;11.65;7.60;;;;;;;;;;5014658;28;20046;-79
2023/08/24 12:57:31;;;;;;;11.48;7.15;;;;;;;;;;5014492;28;20463;-80
2023/08/24 12:59:58;;;;;;;20.25;8.00;;;;;;;;;;5013540;28;20092;-79
2023/08/24 13:02:24;;;;;;;18.00;8.20;;;;;;;;;;4996568;28;20053;-79
2023/08/24 13:04:50;;;;;;;12.75;7.38;;;;;;;;;;4996523;28;20073;-78
2023/08/24 13:07:16;;;;;;;15.35;6.88;;;;;;;;;;4995391;28;20112;-80
2023/08/24 13:09:42;;;;;;;14.63;7.45;;;;;;;;;;4980183;28;20041;-80
2023/08/24 13:12:08;;;;;;;14.30;7.85;;;;;;;;;;5014441;28;20048;-79
2023/08/24 13:14:34;;;;;;;12.20;8.15;;;;;;;;;;5014151;28;20050;-79
2023/08/24 13:17:01;;;;;;;13.23;8.20;;;;;;;;;;5012818;28;20521;-79
2023/08/24 13:19:27;;;;;;;12.00;7.30;;;;;;;;;;4996709;28;20045;-80
2023/08/24 13:21:53;;;;;;;13.98;7.65;;;;;;;;;;4996790;28;20049;-79
2023/08/24 13:24:19;;;;;;;15.63;8.10;;;;;;;;;;4996243;28;20041;-79
2023/08/24 13:26:45;;;;;;;10.88;7.70;;;;;;;;;;5014268;28;20170;-78
2023/08/24 13:29:11;;;;;;;10.45;7.35;;;;;;;;;;5013300;28;20052;-79
2023/08/24 13:31:37;;;;;;;11.48;7.43;;;;;;;;;;5013892;28;20045;-79
2023/08/24 13:34:07;;;;;;;17.92;9.20;;;;;;;;;;5030872;28;20508;-78
2023/08/24 13:36:33;;;;;;;13.48;8.13;;;;;;;;;;5015588;28;20100;-78
2023/08/24 13:38:59;;;;;;;14.38;8.55;;;;;;;;;;5033376;28;20037;-79
2023/08/24 13:41:25;;;;;;;12.25;7.78;;;;;;;;;;5033373;28;20525;-79
2023/08/24 13:43:52;;;;;;;14.07;8.35;;;;;;;;;;5032706;28;20037;-79
2023/08/24 13:46:18;;;;;;;14.75;9.23;;;;;;;;;;5015504;28;20048;-79
2023/08/24 13:48:44;;;;;;;15.13;9.32;;;;;;;;;;5032988;28;20049;-79
2023/08/24 13:51:11;;;;;;;16.90;8.85;;;;;;;;;;5015791;28;20429;-78
2023/08/24 13:53:37;;;;;;;15.73;8.60;;;;;;;;;;5031636;28;20045;-79
2023/08/24 13:56:04;;;;;;;14.40;8.32;;;;;;;;;;5032407;28;20464;-79
2023/08/24 13:58:30;;;;;;;14.20;8.88;;;;;;;;;;5032918;28;20073;-79
2023/08/24 14:00:57;;;;;;;12.00;8.38;;;;;;;;;;5015518;28;20044;-79
2023/08/24 14:03:23;;;;;;;14.20;8.70;;;;;;;;;;5015115;28;20064;-79
2023/08/24 14:05:52;;;;;;;13.43;8.80;;;;;;;;;;5033245;28;20072;-80
2023/08/24 14:08:18;;;;;;;13.38;8.57;;;;;;;;;;5032702;28;20057;-80
2023/08/24 14:10:44;;;;;;;12.32;8.60;;;;;;;;;;5031380;28;20127;-79
2023/08/24 14:13:10;;;;;;;12.00;8.27;;;;;;;;;;5013078;28;20132;-78
2023/08/24 14:15:36;;;;;;;12.75;8.27;;;;;;;;;;5012891;28;20041;-78
2023/08/24 14:18:02;;;;;;;11.38;7.53;;;;;;;;;;5014738;28;20151;-79
2023/08/24 14:20:28;;;;;;;12.80;8.68;;;;;;;;;;5032797;28;20103;-79
2023/08/24 14:22:54;;;;;;;13.27;7.82;;;;;;;;;;5032617;28;20042;-80
2023/08/24 14:25:20;;;;;;;12.40;7.95;;;;;;;;;;5015392;28;20165;-80
2023/08/24 14:27:46;;;;;;;11.88;7.95;;;;;;;;;;5017980;28;20050;-79
2023/08/24 14:30:12;;;;;;;10.13;8.55;;;;;;;;;;5013139;28;20080;-79
2023/08/24 14:32:39;;;;;;;11.90;8.27;;;;;;;;;;5012196;28;20544;-79